sensor_id;sensor_type;location;lat;lon;timestamp;pressure;altitude;pressure_sealevel;temperature;humidity
30554;BME280;17335;50.720;7.452;2023-04-21T00:00:54;99087.66;;;6.07;100.00
30554;BME280;17335;50.720;7.452;2023-04-21T00:03:21;99092.16;;;6.06;100.00
30554;BME280;17335;50.720;7.452;2023-04-21T00:05:49;99083.91;;;5.98;100.00
30554;BME280;17335;50.720;7.452;2023-04-21T00:08:17;99075.94;;;5.98;100.00
30554;BME280;17335;50.720;7.452;2023-04-21T00:10:44;99081.38;;;5.96;100.00
30554;BME280;17335;50.720;7.452;2023-04-21T00:13:12;99081.84;;;5.90;100.00
30554;BME280;17335;50.720;7.452;2023-04-21T00:15:39;99072.75;;;5.93;100.00
30554;BME280;17335;50.720;7.452;2023-04-21T00:18:06;99074.34;;;5.95;100.00
30554;BME280;17335;50.720;7.452;2023-04-21T00:20:33;99069.13;;;5.94;100.00
30554;BME280;17335;50.720;7.452;2023-04-21T00:23:00;99069.59;;;5.88;100.00
30554;BME280;17335;50.720;7.452;2023-04-21T00:25:26;99062.72;;;5.85;100.00
30554;BME280;17335;50.720;7.452;2023-04-21T00:27:53;99068.78;;;5.87;100.00
30554;BME280;17335;50.720;7.452;2023-04-21T00:30:20;99070.00;;;5.83;100.00
30554;BME280;17335;50.720;7.452;2023-04-21T00:32:47;99072.91;;;5.80;100.00
30554;BME280;17335;50.720;7.452;2023-04-21T00:35:13;99070.00;;;5.83;100.00
30554;BME280;17335;50.720;7.452;2023-04-21T00:37:40;99077.72;;;5.86;100.00
30554;BME280;17335;50.720;7.452;2023-04-21T00:40:07;99064.16;;;5.89;100.00
30554;BME280;17335;50.720;7.452;2023-04-21T00:42:34;99057.16;;;5.88;100.00
30554;BME280;17335;50.720;7.452;2023-04-21T00:45:01;99059.69;;;5.90;100.00
30554;BME280;17335;50.720;7.452;2023-04-21T00:47:28;99058.94;;;5.88;100.00
30554;BME280;17335;50.720;7.452;2023-04-21T00:49:56;99052.56;;;6.01;100.00
30554;BME280;17335;50.720;7.452;2023-04-21T00:52:23;99050.59;;;5.81;100.00
30554;BME280;17335;50.720;7.452;2023-04-21T00:54:51;99055.31;;;5.77;100.00
30554;BME280;17335;50.720;7.452;2023-04-21T00:57:20;99046.50;;;5.66;100.00
30554;BME280;17335;50.720;7.452;2023-04-21T00:59:47;99048.53;;;5.62;100.00
30554;BME280;17335;50.720;7.452;2023-04-21T01:02:15;99046.13;;;5.59;100.00
30554;BME280;17335;50.720;7.452;2023-04-21T01:04:43;99036.78;;;5.53;100.00
30554;BME280;17335;50.720;7.452;2023-04-21T01:07:11;99044.56;;;5.45;100.00
30554;BME280;17335;50.720;7.452;2023-04-21T01:09:38;99036.91;;;5.40;100.00
30554;BME280;17335;50.720;7.452;2023-04-21T01:12:09;99038.09;;;5.36;100.00
30554;BME280;17335;50.720;7.452;2023-04-21T01:14:38;99042.94;;;5.31;100.00
30554;BME280;17335;50.720;7.452;2023-04-21T01:17:05;99053.13;;;5.26;100.00
30554;BME280;17335;50.720;7.452;2023-04-21T01:19:36;99045.16;;;5.26;100.00
30554;BME280;17335;50.720;7.452;2023-04-21T01:22:06;99049.81;;;5.22;100.00
30554;BME280;17335;50.720;7.452;2023-04-21T01:24:44;99055.88;;;5.13;100.00
30554;BME280;17335;50.720;7.452;2023-04-21T01:27:15;99059.25;;;5.04;100.00
30554;BME280;17335;50.720;7.452;2023-04-21T01:29:46;99054.59;;;4.95;100.00
30554;BME280;17335;50.720;7.452;2023-04-21T01:32:18;99047.09;;;4.88;100.00
30554;BME280;17335;50.720;7.452;2023-04-21T01:34:47;99057.97;;;4.85;100.00
30554;BME280;17335;50.720;7.452;2023-04-21T01:37:16;99054.06;;;4.78;100.00
30554;BME280;17335;50.720;7.452;2023-04-21T01:39:45;99051.19;;;4.81;100.00
30554;BME280;17335;50.720;7.452;2023-04-21T01:42:13;99052.16;;;4.80;100.00
30554;BME280;17335;50.720;7.452;2023-04-21T01:44:39;99049.19;;;4.72;100.00
30554;BME280;17335;50.720;7.452;2023-04-21T01:47:07;99053.78;;;4.70;100.00
30554;BME280;17335;50.720;7.452;2023-04-21T01:49:34;99057.88;;;4.63;100.00
30554;BME280;17335;50.720;7.452;2023-04-21T01:52:00;99050.56;;;4.54;100.00
30554;BME280;17335;50.720;7.452;2023-04-21T01:54:27;99053.47;;;4.50;100.00
30554;BME280;17335;50.720;7.452;2023-04-21T01:56:53;99055.63;;;4.45;100.00
30554;BME280;17335;50.720;7.452;2023-04-21T01:59:20;99054.13;;;4.41;100.00
30554;BME280;17335;50.720;7.452;2023-04-21T02:04:21;99049.19;;;4.37;100.00
30554;BME280;17335;50.720;7.452;2023-04-21T02:06:48;99049.28;;;4.35;100.00
30554;BME280;17335;50.720;7.452;2023-04-21T02:09:15;99043.00;;;4.36;100.00
30554;BME280;17335;50.720;7.452;2023-04-21T02:11:42;99041.66;;;4.30;100.00
30554;BME280;17335;50.720;7.452;2023-04-21T02:14:08;99048.16;;;4.26;100.00
30554;BME280;17335;50.720;7.452;2023-04-21T02:16:35;99047.25;;;4.15;100.00
30554;BME280;17335;50.720;7.452;2023-04-21T02:19:01;99045.53;;;4.13;100.00
30554;BME280;17335;50.720;7.452;2023-04-21T02:21:28;99051.94;;;4.11;100.00
30554;BME280;17335;50.720;7.452;2023-04-21T02:23:54;99047.88;;;4.05;100.00
30554;BME280;17335;50.720;7.452;2023-04-21T02:26:21;99052.16;;;4.08;100.00
30554;BME280;17335;50.720;7.452;2023-04-21T02:28:48;99056.38;;;4.10;100.00
30554;BME280;17335;50.720;7.452;2023-04-21T02:31:16;99057.00;;;4.14;100.00
30554;BME280;17335;50.720;7.452;2023-04-21T02:33:43;99050.72;;;4.15;100.00
30554;BME280;17335;50.720;7.452;2023-04-21T02:36:10;99052.97;;;4.08;100.00
30554;BME280;17335;50.720;7.452;2023-04-21T02:38:37;99046.75;;;3.97;100.00
30554;BME280;17335;50.720;7.452;2023-04-21T02:41:03;99040.91;;;3.91;100.00
30554;BME280;17335;50.720;7.452;2023-04-21T02:43:30;99051.44;;;3.93;100.00
30554;BME280;17335;50.720;7.452;2023-04-21T02:45:56;99048.34;;;3.99;100.00
30554;BME280;17335;50.720;7.452;2023-04-21T02:48:23;99060.44;;;4.03;100.00
30554;BME280;17335;50.720;7.452;2023-04-21T02:50:50;99047.88;;;4.05;100.00
30554;BME280;17335;50.720;7.452;2023-04-21T02:53:21;99057.25;;;4.11;100.00
30554;BME280;17335;50.720;7.452;2023-04-21T02:55:47;99054.97;;;4.18;100.00
30554;BME280;17335;50.720;7.452;2023-04-21T02:58:14;99060.06;;;4.21;100.00
30554;BME280;17335;50.720;7.452;2023-04-21T03:00:41;99057.50;;;4.19;100.00
30554;BME280;17335;50.720;7.452;2023-04-21T03:03:08;99048.47;;;4.22;100.00
30554;BME280;17335;50.720;7.452;2023-04-21T03:05:35;99060.69;;;4.24;100.00
30554;BME280;17335;50.720;7.452;2023-04-21T03:08:02;99063.34;;;4.24;100.00
30554;BME280;17335;50.720;7.452;2023-04-21T03:10:28;99058.66;;;4.28;100.00
30554;BME280;17335;50.720;7.452;2023-04-21T03:12:55;99052.16;;;4.32;100.00
30554;BME280;17335;50.720;7.452;2023-04-21T03:15:22;99056.50;;;4.33;100.00
30554;BME280;17335;50.720;7.452;2023-04-21T03:17:49;99058.53;;;4.29;100.00
30554;BME280;17335;50.720;7.452;2023-04-21T03:20:16;99061.97;;;4.31;100.00
30554;BME280;17335;50.720;7.452;2023-04-21T03:22:42;99071.81;;;4.29;100.00
30554;BME280;17335;50.720;7.452;2023-04-21T03:25:09;99066.09;;;4.23;100.00
30554;BME280;17335;50.720;7.452;2023-04-21T03:27:36;99056.38;;;4.10;100.00
30554;BME280;17335;50.720;7.452;2023-04-21T03:30:03;99048.09;;;4.02;100.00
30554;BME280;17335;50.720;7.452;2023-04-21T03:32:29;99058.63;;;4.04;100.00
30554;BME280;17335;50.720;7.452;2023-04-21T03:34:56;99053.19;;;4.05;100.00
30554;BME280;17335;50.720;7.452;2023-04-21T03:37:22;99065.75;;;4.03;100.00
30554;BME280;17335;50.720;7.452;2023-04-21T03:39:49;99056.59;;;4.07;100.00
30554;BME280;17335;50.720;7.452;2023-04-21T03:42:15;99049.13;;;4.12;100.00
30554;BME280;17335;50.720;7.452;2023-04-21T03:44:41;99052.75;;;4.11;100.00
30554;BME280;17335;50.720;7.452;2023-04-21T03:47:08;99069.31;;;4.15;100.00
30554;BME280;17335;50.720;7.452;2023-04-21T03:49:34;99061.47;;;4.13;100.00
30554;BME280;17335;50.720;7.452;2023-04-21T03:52:01;99070.38;;;4.12;100.00
30554;BME280;17335;50.720;7.452;2023-04-21T03:54:28;99065.31;;;4.09;100.00
30554;BME280;17335;50.720;7.452;2023-04-21T03:56:54;99057.78;;;4.03;100.00
30554;BME280;17335;50.720;7.452;2023-04-21T03:59:21;99060.84;;;3.97;100.00
30554;BME280;17335;50.720;7.452;2023-04-21T04:01:47;99054.72;;;3.97;100.00
30554;BME280;17335;50.720;7.452;2023-04-21T04:04:14;99062.78;;;3.95;100.00
30554;BME280;17335;50.720;7.452;2023-04-21T04:06:41;99059.50;;;3.91;100.00
30554;BME280;17335;50.720;7.452;2023-04-21T04:09:07;99059.38;;;3.93;100.00
30554;BME280;17335;50.720;7.452;2023-04-21T04:11:34;99059.50;;;3.91;100.00
30554;BME280;17335;50.720;7.452;2023-04-21T04:14:00;99059.38;;;3.93;100.00
30554;BME280;17335;50.720;7.452;2023-04-21T04:16:27;99056.31;;;3.99;100.00
30554;BME280;17335;50.720;7.452;2023-04-21T04:18:54;99062.78;;;3.95;100.00
30554;BME280;17335;50.720;7.452;2023-04-21T04:21:21;99063.25;;;3.89;100.00
30554;BME280;17335;50.720;7.452;2023-04-21T04:23:49;99064.50;;;3.83;100.00
30554;BME280;17335;50.720;7.452;2023-04-21T04:26:16;99064.50;;;3.83;100.00
30554;BME280;17335;50.720;7.452;2023-04-21T04:28:44;99062.81;;;3.82;100.00
30554;BME280;17335;50.720;7.452;2023-04-21T04:31:10;99064.94;;;3.77;100.00
30554;BME280;17335;50.720;7.452;2023-04-21T04:33:42;99061.88;;;3.70;100.00
30554;BME280;17335;50.720;7.452;2023-04-21T04:36:09;99060.41;;;3.66;100.00
30554;BME280;17335;50.720;7.452;2023-04-21T04:38:37;99061.88;;;3.70;100.00
30554;BME280;17335;50.720;7.452;2023-04-21T04:41:04;99070.56;;;3.72;100.00
30554;BME280;17335;50.720;7.452;2023-04-21T04:43:31;99063.97;;;3.78;100.00
30554;BME280;17335;50.720;7.452;2023-04-21T04:46:04;99064.63;;;3.82;100.00
30554;BME280;17335;50.720;7.452;2023-04-21T04:48:31;99053.56;;;3.88;100.00
30554;BME280;17335;50.720;7.452;2023-04-21T04:50:58;99066.63;;;3.91;100.00
30554;BME280;17335;50.720;7.452;2023-04-21T04:53:26;99066.94;;;3.99;100.00
30554;BME280;17335;50.720;7.452;2023-04-21T04:55:53;99068.19;;;4.06;100.00
30554;BME280;17335;50.720;7.452;2023-04-21T04:58:20;99072.41;;;4.09;100.00
30554;BME280;17335;50.720;7.452;2023-04-21T05:00:47;99067.00;;;4.10;100.00
30554;BME280;17335;50.720;7.452;2023-04-21T05:03:14;99064.69;;;4.06;100.00
30554;BME280;17335;50.720;7.452;2023-04-21T05:05:41;99069.03;;;4.07;100.00
30554;BME280;17335;50.720;7.452;2023-04-21T05:08:07;99072.53;;;4.07;100.00
30554;BME280;17335;50.720;7.452;2023-04-21T05:10:34;99074.97;;;4.10;100.00
30554;BME280;17335;50.720;7.452;2023-04-21T05:13:01;99077.41;;;4.13;100.00
30554;BME280;17335;50.720;7.452;2023-04-21T05:15:27;99070.63;;;4.09;100.00
30554;BME280;17335;50.720;7.452;2023-04-21T05:17:54;99079.75;;;4.05;100.00
30554;BME280;17335;50.720;7.452;2023-04-21T05:20:21;99073.09;;;4.00;100.00
30554;BME280;17335;50.720;7.452;2023-04-21T05:22:48;99077.78;;;3.96;100.00
30554;BME280;17335;50.720;7.452;2023-04-21T05:25:14;99072.34;;;3.98;100.00
30554;BME280;17335;50.720;7.452;2023-04-21T05:27:41;99079.22;;;4.00;100.00
30554;BME280;17335;50.720;7.452;2023-04-21T05:30:08;99074.03;;;3.99;100.00
30554;BME280;17335;50.720;7.452;2023-04-21T05:32:35;99080.00;;;3.89;100.00
30554;BME280;17335;50.720;7.452;2023-04-21T05:35:02;99081.94;;;3.87;100.00
30554;BME280;17335;50.720;7.452;2023-04-21T05:37:28;99083.59;;;3.88;100.00
30554;BME280;17335;50.720;7.452;2023-04-21T05:39:55;99080.00;;;3.89;100.00
30554;BME280;17335;50.720;7.452;2023-04-21T05:42:21;99075.94;;;3.97;100.00
30554;BME280;17335;50.720;7.452;2023-04-21T05:44:48;99080.94;;;4.01;100.00
30554;BME280;17335;50.720;7.452;2023-04-21T05:47:14;99080.63;;;4.06;100.00
30554;BME280;17335;50.720;7.452;2023-04-21T05:49:40;99086.72;;;4.19;100.00
30554;BME280;17335;50.720;7.452;2023-04-21T05:52:08;99084.69;;;4.23;100.00
30554;BME280;17335;50.720;7.452;2023-04-21T05:54:35;99091.00;;;4.22;100.00
30554;BME280;17335;50.720;7.452;2023-04-21T05:57:02;99086.94;;;4.29;100.00
30554;BME280;17335;50.720;7.452;2023-04-21T05:59:29;99090.31;;;4.31;100.00
30554;BME280;17335;50.720;7.452;2023-04-21T06:01:55;99092.25;;;4.29;100.00
30554;BME280;17335;50.720;7.452;2023-04-21T06:04:22;99087.88;;;4.28;100.00
30554;BME280;17335;50.720;7.452;2023-04-21T06:06:49;99086.72;;;4.32;100.00
30554;BME280;17335;50.720;7.452;2023-04-21T06:09:15;99084.47;;;4.26;100.00
30554;BME280;17335;50.720;7.452;2023-04-21T06:11:42;99088.38;;;4.33;100.00
30554;BME280;17335;50.720;7.452;2023-04-21T06:14:08;99080.72;;;4.41;100.00
30554;BME280;17335;50.720;7.452;2023-04-21T06:16:34;99078.34;;;4.49;100.00
30554;BME280;17335;50.720;7.452;2023-04-21T06:19:01;99073.22;;;4.59;100.00
30554;BME280;17335;50.720;7.452;2023-04-21T06:21:28;99065.84;;;4.63;100.00
30554;BME280;17335;50.720;7.452;2023-04-21T06:23:54;99067.19;;;4.68;100.00
30554;BME280;17335;50.720;7.452;2023-04-21T06:26:21;99063.72;;;4.79;100.00
30554;BME280;17335;50.720;7.452;2023-04-21T06:28:47;99070.66;;;4.93;100.00
30554;BME280;17335;50.720;7.452;2023-04-21T06:31:14;99065.28;;;5.06;100.00
30554;BME280;17335;50.720;7.452;2023-04-21T06:33:41;99071.94;;;5.12;100.00
30554;BME280;17335;50.720;7.452;2023-04-21T06:36:07;99082.50;;;5.24;100.00
30554;BME280;17335;50.720;7.452;2023-04-21T06:38:34;99071.38;;;5.31;100.00
30554;BME280;17335;50.720;7.452;2023-04-21T06:41:00;99078.41;;;5.43;100.00
30554;BME280;17335;50.720;7.452;2023-04-21T06:43:28;99080.75;;;5.70;100.00
30554;BME280;17335;50.720;7.452;2023-04-21T06:45:54;99078.59;;;5.87;100.00
30554;BME280;17335;50.720;7.452;2023-04-21T06:48:20;99066.88;;;6.00;100.00
30554;BME280;17335;50.720;7.452;2023-04-21T06:50:47;99073.28;;;6.09;100.00
30554;BME280;17335;50.720;7.452;2023-04-21T06:53:13;99065.63;;;6.16;100.00
30554;BME280;17335;50.720;7.452;2023-04-21T06:55:41;99062.69;;;6.30;100.00
30554;BME280;17335;50.720;7.452;2023-04-21T06:58:07;99068.50;;;6.35;100.00
30554;BME280;17335;50.720;7.452;2023-04-21T07:00:36;99064.75;;;6.38;100.00
30554;BME280;17335;50.720;7.452;2023-04-21T07:03:03;99061.19;;;6.49;100.00
30554;BME280;17335;50.720;7.452;2023-04-21T07:05:30;99063.44;;;6.65;100.00
30554;BME280;17335;50.720;7.452;2023-04-21T07:07:56;99064.72;;;6.82;100.00
30554;BME280;17335;50.720;7.452;2023-04-21T07:10:26;99057.63;;;6.92;100.00
30554;BME280;17335;50.720;7.452;2023-04-21T07:12:53;99052.97;;;7.05;100.00
30554;BME280;17335;50.720;7.452;2023-04-21T07:15:19;99063.69;;;7.15;100.00
30554;BME280;17335;50.720;7.452;2023-04-21T07:17:46;99062.13;;;7.33;100.00
30554;BME280;17335;50.720;7.452;2023-04-21T07:20:13;99044.16;;;7.36;100.00
30554;BME280;17335;50.720;7.452;2023-04-21T07:22:39;99054.81;;;7.57;100.00
30554;BME280;17335;50.720;7.452;2023-04-21T07:25:06;99052.88;;;7.59;100.00
30554;BME280;17335;50.720;7.452;2023-04-21T07:27:33;99054.25;;;7.53;100.00
30554;BME280;17335;50.720;7.452;2023-04-21T07:30:03;99053.75;;;7.69;100.00
30554;BME280;17335;50.720;7.452;2023-04-21T07:32:29;99052.03;;;7.89;100.00
30554;BME280;17335;50.720;7.452;2023-04-21T07:34:56;99053.22;;;8.16;100.00
30554;BME280;17335;50.720;7.452;2023-04-21T07:37:23;99047.25;;;8.43;100.00
30554;BME280;17335;50.720;7.452;2023-04-21T07:39:50;99055.03;;;8.75;100.00
30554;BME280;17335;50.720;7.452;2023-04-21T07:42:17;99045.75;;;8.89;100.00
30554;BME280;17335;50.720;7.452;2023-04-21T07:44:43;99039.53;;;8.98;100.00
30554;BME280;17335;50.720;7.452;2023-04-21T07:47:10;99037.00;;;9.07;100.00
30554;BME280;17335;50.720;7.452;2023-04-21T07:49:37;99026.00;;;9.10;100.00
30554;BME280;17335;50.720;7.452;2023-04-21T07:52:03;99036.41;;;9.23;100.00
30554;BME280;17335;50.720;7.452;2023-04-21T07:54:30;99033.00;;;9.30;100.00
30554;BME280;17335;50.720;7.452;2023-04-21T07:56:57;99036.66;;;9.29;100.00
30554;BME280;17335;50.720;7.452;2023-04-21T07:59:23;99035.56;;;9.32;100.00
30554;BME280;17335;50.720;7.452;2023-04-21T08:01:50;99030.28;;;9.40;100.00
30554;BME280;17335;50.720;7.452;2023-04-21T08:04:17;99030.97;;;9.52;100.00
30554;BME280;17335;50.720;7.452;2023-04-21T08:06:43;99029.16;;;9.52;100.00
30554;BME280;17335;50.720;7.452;2023-04-21T08:09:10;99025.03;;;9.58;100.00
30554;BME280;17335;50.720;7.452;2023-04-21T08:11:37;99026.94;;;9.75;100.00
30554;BME280;17335;50.720;7.452;2023-04-21T08:14:03;99030.06;;;9.71;100.00
30554;BME280;17335;50.720;7.452;2023-04-21T08:16:30;99024.38;;;9.84;100.00
30554;BME280;17335;50.720;7.452;2023-04-21T08:18:57;99033.72;;;10.07;100.00
30554;BME280;17335;50.720;7.452;2023-04-21T08:21:23;99027.34;;;10.08;100.00
30554;BME280;17335;50.720;7.452;2023-04-21T08:23:50;99020.00;;;10.10;100.00
30554;BME280;17335;50.720;7.452;2023-04-21T08:26:17;99021.69;;;10.11;100.00
30554;BME280;17335;50.720;7.452;2023-04-21T08:28:46;99023.06;;;10.16;100.00
30554;BME280;17335;50.720;7.452;2023-04-21T08:31:16;99020.88;;;10.29;100.00
30554;BME280;17335;50.720;7.452;2023-04-21T08:33:42;99022.09;;;10.44;100.00
30554;BME280;17335;50.720;7.452;2023-04-21T08:36:23;99020.94;;;10.83;100.00
30554;BME280;17335;50.720;7.452;2023-04-21T08:38:55;99014.59;;;11.10;100.00
30554;BME280;17335;50.720;7.452;2023-04-21T08:41:23;99010.38;;;10.81;100.00
30554;BME280;17335;50.720;7.452;2023-04-21T08:43:49;99010.41;;;10.54;100.00
30554;BME280;17335;50.720;7.452;2023-04-21T08:46:16;99018.47;;;10.54;100.00
30554;BME280;17335;50.720;7.452;2023-04-21T08:48:45;99024.03;;;10.52;100.00
30554;BME280;17335;50.720;7.452;2023-04-21T08:51:17;99012.13;;;10.55;100.00
30554;BME280;17335;50.720;7.452;2023-04-21T08:53:46;99019.88;;;10.94;100.00
30554;BME280;17335;50.720;7.452;2023-04-21T08:56:12;99014.38;;;11.21;100.00
30554;BME280;17335;50.720;7.452;2023-04-21T08:58:40;99013.63;;;11.37;100.00
30554;BME280;17335;50.720;7.452;2023-04-21T09:01:07;99006.16;;;11.49;100.00
30554;BME280;17335;50.720;7.452;2023-04-21T09:03:33;99007.13;;;11.48;100.00
30554;BME280;17335;50.720;7.452;2023-04-21T09:06:03;98998.75;;;11.51;100.00
30554;BME280;17335;50.720;7.452;2023-04-21T09:08:37;98998.28;;;11.56;100.00
30554;BME280;17335;50.720;7.452;2023-04-21T09:11:04;98998.44;;;11.54;100.00
30554;BME280;17335;50.720;7.452;2023-04-21T09:13:35;99003.47;;;11.49;100.00
30554;BME280;17335;50.720;7.452;2023-04-21T09:16:03;99001.44;;;11.51;100.00
30554;BME280;17335;50.720;7.452;2023-04-21T09:18:35;98992.59;;;11.59;100.00
30554;BME280;17335;50.720;7.452;2023-04-21T09:21:13;98994.66;;;11.39;100.00
30554;BME280;17335;50.720;7.452;2023-04-21T09:23:51;98987.44;;;11.66;100.00
30554;BME280;17335;50.720;7.452;2023-04-21T09:26:19;98987.44;;;11.74;100.00
30554;BME280;17335;50.720;7.452;2023-04-21T09:28:50;98983.28;;;11.45;100.00
30554;BME280;17335;50.720;7.452;2023-04-21T09:31:18;98974.47;;;11.61;100.00
30554;BME280;17335;50.720;7.452;2023-04-21T09:33:47;98994.38;;;11.76;100.00
30554;BME280;17335;50.720;7.452;2023-04-21T09:36:25;98987.00;;;12.37;100.00
30554;BME280;17335;50.720;7.452;2023-04-21T09:41:39;98973.59;;;12.87;100.00
30554;BME280;17335;50.720;7.452;2023-04-21T09:44:05;98967.19;;;13.29;100.00
30554;BME280;17335;50.720;7.452;2023-04-21T09:46:34;98961.34;;;13.65;100.00
30554;BME280;17335;50.720;7.452;2023-04-21T09:49:02;98956.19;;;13.95;100.00
30554;BME280;17335;50.720;7.452;2023-04-21T09:51:30;98950.63;;;13.57;100.00
30554;BME280;17335;50.720;7.452;2023-04-21T09:54:18;98945.44;;;13.39;100.00
30554;BME280;17335;50.720;7.452;2023-04-21T09:56:49;98942.22;;;13.43;100.00
30554;BME280;17335;50.720;7.452;2023-04-21T09:59:20;98942.47;;;13.65;100.00
30554;BME280;17335;50.720;7.452;2023-04-21T10:01:50;98936.19;;;13.17;100.00
30554;BME280;17335;50.720;7.452;2023-04-21T10:04:19;98942.94;;;12.96;100.00
30554;BME280;17335;50.720;7.452;2023-04-21T10:06:50;98940.69;;;13.41;100.00
30554;BME280;17335;50.720;7.452;2023-04-21T10:09:17;98938.75;;;13.74;100.00
30554;BME280;17335;50.720;7.452;2023-04-21T10:11:46;98927.03;;;13.90;100.00
30554;BME280;17335;50.720;7.452;2023-04-21T10:14:13;98917.25;;;14.20;100.00
30554;BME280;17335;50.720;7.452;2023-04-21T10:16:41;98918.50;;;14.33;100.00
30554;BME280;17335;50.720;7.452;2023-04-21T10:19:25;98917.00;;;14.07;100.00
30554;BME280;17335;50.720;7.452;2023-04-21T10:21:56;98911.38;;;14.17;100.00
30554;BME280;17335;50.720;7.452;2023-04-21T10:24:22;98891.38;;;14.49;100.00
30554;BME280;17335;50.720;7.452;2023-04-21T10:26:50;98889.88;;;14.70;100.00
30554;BME280;17335;50.720;7.452;2023-04-21T10:29:32;98879.28;;;14.68;100.00
30554;BME280;17335;50.720;7.452;2023-04-21T10:32:41;98878.88;;;15.24;100.00
30554;BME280;17335;50.720;7.452;2023-04-21T10:35:13;98887.63;;;14.96;100.00
30554;BME280;17335;50.720;7.452;2023-04-21T10:37:40;98873.91;;;14.98;100.00
30554;BME280;17335;50.720;7.452;2023-04-21T10:40:33;98867.97;;;15.32;100.00
30554;BME280;17335;50.720;7.452;2023-04-21T10:43:41;98861.53;;;15.33;100.00
30554;BME280;17335;50.720;7.452;2023-04-21T10:46:33;98860.03;;;15.46;100.00
30554;BME280;17335;50.720;7.452;2023-04-21T10:49:07;98858.25;;;15.53;100.00
30554;BME280;17335;50.720;7.452;2023-04-21T10:54:43;98838.25;;;15.69;100.00
30554;BME280;17335;50.720;7.452;2023-04-21T10:57:31;98837.09;;;15.93;100.00
30554;BME280;17335;50.720;7.452;2023-04-21T10:59:58;98831.75;;;16.21;100.00
30554;BME280;17335;50.720;7.452;2023-04-21T11:02:25;98827.56;;;16.40;100.00
30554;BME280;17335;50.720;7.452;2023-04-21T11:04:53;98830.59;;;16.59;100.00
30554;BME280;17335;50.720;7.452;2023-04-21T11:07:23;98825.91;;;16.96;100.00
30554;BME280;17335;50.720;7.452;2023-04-21T11:12:32;98826.09;;;16.66;100.00
30554;BME280;17335;50.720;7.452;2023-04-21T11:14:58;98822.28;;;16.60;100.00
30554;BME280;17335;50.720;7.452;2023-04-21T11:17:28;98816.22;;;16.30;100.00
30554;BME280;17335;50.720;7.452;2023-04-21T11:19:55;98805.19;;;16.60;100.00
30554;BME280;17335;50.720;7.452;2023-04-21T11:22:23;98816.03;;;16.60;100.00
30554;BME280;17335;50.720;7.452;2023-04-21T11:24:54;98809.88;;;16.73;100.00
30554;BME280;17335;50.720;7.452;2023-04-21T11:27:21;98814.34;;;16.59;100.00
30554;BME280;17335;50.720;7.452;2023-04-21T11:29:49;98792.41;;;16.25;100.00
30554;BME280;17335;50.720;7.452;2023-04-21T11:32:16;98803.72;;;16.07;100.00
30554;BME280;17335;50.720;7.452;2023-04-21T11:34:48;98801.34;;;15.98;100.00
30554;BME280;17335;50.720;7.452;2023-04-21T11:37:21;98789.69;;;16.47;100.00
30554;BME280;17335;50.720;7.452;2023-04-21T11:39:48;98787.16;;;17.02;100.00
30554;BME280;17335;50.720;7.452;2023-04-21T11:42:20;98771.00;;;17.29;100.00
30554;BME280;17335;50.720;7.452;2023-04-21T11:44:48;98780.91;;;16.45;100.00
30554;BME280;17335;50.720;7.452;2023-04-21T11:47:16;98775.13;;;15.83;100.00
30554;BME280;17335;50.720;7.452;2023-04-21T11:49:48;98771.97;;;16.23;100.00
30554;BME280;17335;50.720;7.452;2023-04-21T11:52:29;98767.06;;;16.90;100.00
30554;BME280;17335;50.720;7.452;2023-04-21T11:55:00;98766.53;;;16.79;100.00
30554;BME280;17335;50.720;7.452;2023-04-21T11:57:29;98769.44;;;16.71;100.00
30554;BME280;17335;50.720;7.452;2023-04-21T12:00:00;98776.09;;;16.40;100.00
30554;BME280;17335;50.720;7.452;2023-04-21T12:02:29;98768.28;;;16.30;100.00
30554;BME280;17335;50.720;7.452;2023-04-21T12:05:00;98774.19;;;15.91;100.00
30554;BME280;17335;50.720;7.452;2023-04-21T12:07:30;98770.59;;;15.69;100.00
30554;BME280;17335;50.720;7.452;2023-04-21T12:09:57;98772.41;;;15.77;100.00
30554;BME280;17335;50.720;7.452;2023-04-21T12:12:24;98763.56;;;15.74;100.00
30554;BME280;17335;50.720;7.452;2023-04-21T12:14:50;98769.09;;;16.03;100.00
30554;BME280;17335;50.720;7.452;2023-04-21T12:17:17;98775.97;;;16.27;100.00
30554;BME280;17335;50.720;7.452;2023-04-21T12:19:44;98754.13;;;16.07;100.00
30554;BME280;17335;50.720;7.452;2023-04-21T12:22:12;98756.25;;;16.11;100.00
30554;BME280;17335;50.720;7.452;2023-04-21T12:24:40;98755.31;;;16.47;100.00
30554;BME280;17335;50.720;7.452;2023-04-21T12:27:07;98761.94;;;16.73;100.00
30554;BME280;17335;50.720;7.452;2023-04-21T12:29:33;98758.38;;;17.01;100.00
30554;BME280;17335;50.720;7.452;2023-04-21T12:32:00;98757.19;;;17.17;100.00
30554;BME280;17335;50.720;7.452;2023-04-21T12:34:27;98761.41;;;17.33;100.00
30554;BME280;17335;50.720;7.452;2023-04-21T12:36:54;98757.31;;;16.95;100.00
30554;BME280;17335;50.720;7.452;2023-04-21T12:39:20;98761.00;;;16.31;100.00
30554;BME280;17335;50.720;7.452;2023-04-21T12:41:47;98763.38;;;16.12;100.00
30554;BME280;17335;50.720;7.452;2023-04-21T12:44:14;98773.16;;;16.13;100.00
30554;BME280;17335;50.720;7.452;2023-04-21T12:46:41;98767.03;;;15.83;100.00
30554;BME280;17335;50.720;7.452;2023-04-21T12:49:07;98760.88;;;15.74;100.00
30554;BME280;17335;50.720;7.452;2023-04-21T12:51:35;98753.03;;;15.80;100.00
30554;BME280;17335;50.720;7.452;2023-04-21T12:54:02;98764.38;;;15.90;100.00
30554;BME280;17335;50.720;7.452;2023-04-21T12:56:29;98753.19;;;16.15;100.00
30554;BME280;17335;50.720;7.452;2023-04-21T12:58:56;98756.06;;;16.13;100.00
30554;BME280;17335;50.720;7.452;2023-04-21T13:01:23;98752.28;;;16.07;100.00
30554;BME280;17335;50.720;7.452;2023-04-21T13:03:50;98750.59;;;15.85;100.00
30554;BME280;17335;50.720;7.452;2023-04-21T13:06:17;98741.88;;;15.68;100.00
30554;BME280;17335;50.720;7.452;2023-04-21T13:08:43;98735.84;;;16.37;100.00
30554;BME280;17335;50.720;7.452;2023-04-21T13:11:10;98734.53;;;16.90;100.00
30554;BME280;17335;50.720;7.452;2023-04-21T13:13:36;98731.81;;;17.38;100.00